Time;durP1;ratioP1;P1;durP2;ratioP2;P2;SDS_P1;SDS_P2;PMS_P1;PMS_P2;Temp;Humidity;BMP_temperature;BMP_pressure;BME280_temperature;BME280_humidity;BME280_pressure;Samples;Min_cycle;Max_cycle;Signal;HPM_P1;HPM_P2
2021/12/18 00:01:55;;;;;;;38.60;12.52;;;;;;;;;;5080892;27;97601;-74
2021/12/18 00:04:22;;;;;;;44.13;12.65;;;;;;;;;;5085107;27;95170;-73
2021/12/18 00:06:48;;;;;;;45.25;13.27;;;;;;;;;;5080596;27;96982;-73
2021/12/18 00:09:14;;;;;;;39.38;12.93;;;;;;;;;;5082794;27;97325;-73
2021/12/18 00:11:41;;;;;;;42.97;12.88;;;;;;;;;;5093345;27;95227;-73
2021/12/18 00:14:07;;;;;;;48.15;14.35;;;;;;;;;;5078614;27;96713;-73
2021/12/18 00:16:33;;;;;;;50.25;14.27;;;;;;;;;;5078255;27;97270;-73
2021/12/18 00:19:00;;;;;;;39.30;12.85;;;;;;;;;;5075027;27;95315;-73
2021/12/18 00:21:26;;;;;;;48.72;13.60;;;;;;;;;;5079262;27;96988;-73
2021/12/18 00:23:53;;;;;;;40.70;12.48;;;;;;;;;;5080426;27;95647;-73
2021/12/18 00:26:20;;;;;;;38.40;12.48;;;;;;;;;;5096939;27;96744;-73
2021/12/18 00:28:47;;;;;;;42.78;13.25;;;;;;;;;;5091330;27;97266;-73
2021/12/18 00:31:13;;;;;;;42.35;13.27;;;;;;;;;;5095899;27;95556;-73
2021/12/18 00:33:40;;;;;;;40.88;12.90;;;;;;;;;;5092675;27;96649;-74
2021/12/18 00:36:06;;;;;;;43.00;13.07;;;;;;;;;;5085026;27;97398;-73
2021/12/18 00:38:33;;;;;;;41.97;12.70;;;;;;;;;;5085231;27;95435;-73
2021/12/18 00:43:39;;;;;;;44.58;12.88;;;;;;;;;;5075947;27;95616;-74
2021/12/18 00:46:05;;;;;;;37.72;11.75;;;;;;;;;;5080799;27;96797;-73
2021/12/18 00:48:32;;;;;;;40.80;12.18;;;;;;;;;;5095408;27;97348;-74
2021/12/18 00:50:58;;;;;;;37.67;12.23;;;;;;;;;;5077776;27;95243;-73
2021/12/18 00:53:29;;;;;;;40.95;11.43;;;;;;;;;;5076177;27;97037;-73
2021/12/18 00:55:56;;;;;;;31.65;10.93;;;;;;;;;;5075680;27;97095;-75
2021/12/18 00:58:23;;;;;;;36.65;11.50;;;;;;;;;;5082462;27;95381;-73
2021/12/18 01:00:52;;;;;;;35.95;10.82;;;;;;;;;;5079512;27;96390;-72
2021/12/18 01:03:20;;;;;;;35.58;11.40;;;;;;;;;;5078203;27;97489;-73
2021/12/18 01:05:47;;;;;;;34.08;10.63;;;;;;;;;;5075396;27;96697;-73
2021/12/18 01:08:14;;;;;;;32.25;10.60;;;;;;;;;;5083385;27;99763;-73
2021/12/18 01:13:15;;;;;;;33.13;10.93;;;;;;;;;;5086374;27;96799;-73
2021/12/18 01:15:48;;;;;;;35.90;10.33;;;;;;;;;;5079873;27;97637;-73
2021/12/18 01:23:44;;;;;;;31.75;10.48;;;;;;;;;;5075251;27;97331;-73
2021/12/18 01:26:10;;;;;;;39.28;10.98;;;;;;;;;;5077406;27;95083;-73
2021/12/18 01:28:37;;;;;;;30.60;9.65;;;;;;;;;;5075343;27;97272;-72
2021/12/18 01:31:03;;;;;;;33.35;11.18;;;;;;;;;;5069134;27;95308;-73
2021/12/18 01:33:29;;;;;;;27.15;9.93;;;;;;;;;;5069002;27;96518;-73
2021/12/18 01:35:59;;;;;;;30.88;10.10;;;;;;;;;;5087618;27;97319;-74
2021/12/18 01:38:28;;;;;;;29.98;9.73;;;;;;;;;;5082130;27;95385;-74
2021/12/18 01:40:55;;;;;;;32.35;10.23;;;;;;;;;;5086787;27;95980;-75
2021/12/18 01:53:38;;;;;;;31.67;10.20;;;;;;;;;;5074820;27;96803;-74
2021/12/18 01:56:05;;;;;;;35.70;10.35;;;;;;;;;;5073614;27;97337;-74
2021/12/18 01:58:32;;;;;;;32.63;9.73;;;;;;;;;;5091498;27;95210;-74
2021/12/18 02:00:59;;;;;;;29.77;9.50;;;;;;;;;;5078692;27;95826;-74
2021/12/18 02:03:26;;;;;;;30.13;9.90;;;;;;;;;;5073712;27;97215;-73
2021/12/18 02:05:52;;;;;;;27.23;8.85;;;;;;;;;;5074128;27;95228;-74
2021/12/18 02:08:23;;;;;;;31.95;9.75;;;;;;;;;;5067423;27;96754;-74
2021/12/18 02:10:56;;;;;;;26.52;8.15;;;;;;;;;;5080901;27;97269;-74
2021/12/18 02:14:23;;;;;;;19.70;7.70;;;;;;;;;;5072671;27;96774;-74
2021/12/18 02:21:39;;;;;;;24.02;8.30;;;;;;;;;;5075577;27;96546;-74
2021/12/18 02:24:05;;;;;;;22.15;8.00;;;;;;;;;;5085900;27;97267;-75
2021/12/18 02:26:34;;;;;;;22.52;8.50;;;;;;;;;;5071351;27;95339;-74
2021/12/18 02:29:03;;;;;;;26.23;8.30;;;;;;;;;;5072725;27;96856;-74
2021/12/18 02:31:32;;;;;;;26.23;8.95;;;;;;;;;;5090457;27;97265;-74
2021/12/18 02:33:59;;;;;;;28.20;9.05;;;;;;;;;;5067462;27;95314;-74
2021/12/18 02:36:25;;;;;;;29.67;9.00;;;;;;;;;;5075452;27;97285;-74
2021/12/18 02:41:30;;;;;;;28.27;8.65;;;;;;;;;;5066070;27;96708;-74
2021/12/18 02:44:00;;;;;;;32.25;9.57;;;;;;;;;;5071095;27;97347;-74
2021/12/18 02:46:27;;;;;;;33.58;10.13;;;;;;;;;;5074463;27;95230;-74
2021/12/18 02:48:54;;;;;;;32.58;9.68;;;;;;;;;;5073463;27;96817;-74
2021/12/18 02:51:21;;;;;;;27.75;9.20;;;;;;;;;;5084427;27;97586;-74
2021/12/18 02:53:48;;;;;;;32.28;8.95;;;;;;;;;;5079000;27;95374;-74
2021/12/18 02:56:16;;;;;;;33.67;9.82;;;;;;;;;;5069549;27;97282;-74
2021/12/18 02:58:43;;;;;;;25.88;8.68;;;;;;;;;;5073907;27;95471;-73
2021/12/18 03:01:11;;;;;;;28.38;8.30;;;;;;;;;;5083706;27;97172;-73
2021/12/18 03:03:40;;;;;;;31.02;8.85;;;;;;;;;;5088865;27;97349;-73
2021/12/18 03:08:54;;;;;;;31.98;8.73;;;;;;;;;;5074313;27;97821;-73
2021/12/18 03:27:40;;;;;;;27.60;7.22;;;;;;;;;;5059593;27;95297;-73
2021/12/18 03:30:07;;;;;;;23.60;6.97;;;;;;;;;;5054430;27;96833;-73
2021/12/18 03:32:33;;;;;;;26.23;7.13;;;;;;;;;;5073881;27;96983;-73
2021/12/18 03:34:59;;;;;;;21.42;6.40;;;;;;;;;;5053006;27;94999;-73
2021/12/18 03:37:26;;;;;;;20.73;6.22;;;;;;;;;;5075552;27;95643;-73
2021/12/18 03:39:52;;;;;;;26.20;6.95;;;;;;;;;;5092354;27;97185;-73
2021/12/18 03:42:18;;;;;;;23.67;7.07;;;;;;;;;;5075055;27;95869;-74
2021/12/18 03:44:44;;;;;;;25.40;7.60;;;;;;;;;;5072493;27;97994;-74
2021/12/18 03:47:11;;;;;;;28.38;7.53;;;;;;;;;;5073403;27;95381;-73
2021/12/18 03:49:38;;;;;;;31.08;7.82;;;;;;;;;;5072546;27;95853;-74
2021/12/18 03:52:04;;;;;;;28.05;7.47;;;;;;;;;;5075059;27;97349;-73
2021/12/18 03:54:30;;;;;;;29.08;7.65;;;;;;;;;;5069008;27;95219;-73
2021/12/18 03:56:57;;;;;;;34.55;8.27;;;;;;;;;;5072843;27;96853;-73
2021/12/18 03:59:23;;;;;;;32.72;7.40;;;;;;;;;;5073003;27;97281;-73
2021/12/18 04:01:50;;;;;;;26.25;7.13;;;;;;;;;;5078062;27;95466;-73
2021/12/18 04:04:16;;;;;;;33.53;7.05;;;;;;;;;;5072016;27;97819;-73
2021/12/18 04:06:43;;;;;;;26.90;6.30;;;;;;;;;;5069224;27;95380;-73
2021/12/18 04:09:11;;;;;;;43.88;7.05;;;;;;;;;;5072002;27;96817;-73
2021/12/18 04:11:38;;;;;;;25.52;6.30;;;;;;;;;;5074249;27;97484;-73
2021/12/18 04:14:04;;;;;;;44.88;6.32;;;;;;;;;;5060530;27;97137;-73
2021/12/18 04:16:31;;;;;;;45.63;6.82;;;;;;;;;;5092195;27;96644;-73
2021/12/18 04:18:57;;;;;;;36.17;5.95;;;;;;;;;;5093264;27;97258;-73
2021/12/18 04:21:23;;;;;;;36.72;6.90;;;;;;;;;;5081166;27;95391;-73
2021/12/18 04:23:50;;;;;;;37.60;5.90;;;;;;;;;;5071500;27;96804;-73
2021/12/18 04:26:16;;;;;;;36.17;5.53;;;;;;;;;;5072982;27;95316;-73
2021/12/18 04:28:42;;;;;;;36.97;6.55;;;;;;;;;;5073120;27;96765;-73
2021/12/18 04:31:09;;;;;;;31.52;5.85;;;;;;;;;;5081681;27;97338;-73
2021/12/18 04:33:35;;;;;;;37.88;6.50;;;;;;;;;;5074607;27;96514;-73
2021/12/18 04:36:02;;;;;;;46.97;6.05;;;;;;;;;;5071707;27;96691;-72
2021/12/18 04:38:28;;;;;;;30.75;4.95;;;;;;;;;;5081276;27;97395;-73
2021/12/18 04:40:54;;;;;;;49.45;6.00;;;;;;;;;;5073851;27;95224;-73
2021/12/18 04:43:21;;;;;;;37.92;6.70;;;;;;;;;;5065685;27;96912;-73
2021/12/18 04:45:47;;;;;;;27.00;4.93;;;;;;;;;;5075718;27;95133;-73
2021/12/18 04:48:13;;;;;;;30.05;5.00;;;;;;;;;;5072896;27;96616;-73
2021/12/18 04:50:39;;;;;;;39.33;5.07;;;;;;;;;;5089906;27;97715;-73
2021/12/18 04:53:06;;;;;;;34.22;5.00;;;;;;;;;;5071210;27;95579;-73
2021/12/18 04:55:32;;;;;;;34.92;4.53;;;;;;;;;;5069323;27;96599;-73
2021/12/18 04:57:58;;;;;;;29.50;5.20;;;;;;;;;;5088727;27;97077;-73
2021/12/18 05:00:30;;;;;;;24.38;4.40;;;;;;;;;;5073357;27;95164;-73
2021/12/18 05:03:01;;;;;;;39.50;4.68;;;;;;;;;;5051818;27;96829;-73
2021/12/18 05:05:28;;;;;;;27.42;5.45;;;;;;;;;;5071048;27;97242;-73
2021/12/18 05:07:54;;;;;;;42.20;4.53;;;;;;;;;;5076877;27;96731;-73
2021/12/18 05:10:20;;;;;;;36.67;5.40;;;;;;;;;;5068601;27;97349;-73
2021/12/18 05:12:47;;;;;;;31.58;4.63;;;;;;;;;;5071110;27;95325;-73
2021/12/18 05:15:13;;;;;;;33.20;5.30;;;;;;;;;;5075820;27;98478;-73
2021/12/18 05:17:39;;;;;;;34.10;5.60;;;;;;;;;;5081074;27;97515;-73
2021/12/18 05:20:06;;;;;;;25.88;4.78;;;;;;;;;;5076458;27;95421;-75
2021/12/18 05:22:33;;;;;;;32.80;4.45;;;;;;;;;;5085499;27;96661;-74
2021/12/18 05:24:59;;;;;;;33.55;4.43;;;;;;;;;;5088995;27;97284;-74
2021/12/18 05:27:25;;;;;;;27.50;4.35;;;;;;;;;;5089118;27;95286;-74
2021/12/18 05:29:52;;;;;;;27.42;4.28;;;;;;;;;;5055182;27;97363;-74
2021/12/18 05:32:19;;;;;;;32.80;5.30;;;;;;;;;;5059438;27;95238;-74
2021/12/18 05:34:45;;;;;;;40.15;5.15;;;;;;;;;;5062888;27;95685;-74
2021/12/18 05:37:20;;;;;;;44.95;5.15;;;;;;;;;;5060756;27;96603;-74
2021/12/18 05:39:47;;;;;;;25.63;5.35;;;;;;;;;;5096103;27;95409;-74
2021/12/18 05:42:14;;;;;;;24.55;4.55;;;;;;;;;;5088623;27;96931;-74
2021/12/18 05:44:40;;;;;;;27.13;5.22;;;;;;;;;;5061318;27;97161;-74
2021/12/18 05:47:07;;;;;;;27.80;4.30;;;;;;;;;;5067911;27;95228;-74
2021/12/18 05:49:34;;;;;;;19.38;3.75;;;;;;;;;;5065946;27;96565;-74
2021/12/18 05:52:01;;;;;;;17.27;3.60;;;;;;;;;;5072155;27;95394;-74
2021/12/18 05:54:27;;;;;;;20.92;3.72;;;;;;;;;;5068501;27;96833;-74
2021/12/18 05:56:54;;;;;;;21.70;3.47;;;;;;;;;;5073981;27;97244;-74
2021/12/18 05:59:20;;;;;;;20.42;3.33;;;;;;;;;;5074598;27;96259;-74
2021/12/18 06:01:46;;;;;;;16.30;3.25;;;;;;;;;;5072014;27;96833;-73
2021/12/18 06:04:13;;;;;;;22.13;3.60;;;;;;;;;;5064162;27;97410;-73
2021/12/18 06:06:39;;;;;;;19.98;3.90;;;;;;;;;;5075887;27;95441;-74
2021/12/18 06:09:06;;;;;;;29.35;3.88;;;;;;;;;;5088001;27;96807;-73
2021/12/18 06:11:33;;;;;;;22.63;3.50;;;;;;;;;;5093796;27;97326;-73
2021/12/18 06:14:00;;;;;;;36.25;4.30;;;;;;;;;;5066049;27;95802;-87
2021/12/18 06:16:26;;;;;;;34.55;4.40;;;;;;;;;;5067591;27;97924;-74
2021/12/18 06:18:52;;;;;;;38.83;3.88;;;;;;;;;;5074968;27;95359;-73
2021/12/18 06:21:19;;;;;;;31.45;3.80;;;;;;;;;;5074754;27;96602;-73
2021/12/18 06:23:53;;;;;;;19.30;3.47;;;;;;;;;;5074297;27;97688;-73
2021/12/18 06:26:21;;;;;;;24.75;3.20;;;;;;;;;;5061748;27;95134;-74
2021/12/18 06:28:48;;;;;;;36.33;3.30;;;;;;;;;;5057699;27;96838;-74
2021/12/18 06:31:28;;;;;;;23.42;3.72;;;;;;;;;;5087911;27;97788;-74
2021/12/18 06:33:55;;;;;;;22.83;2.40;;;;;;;;;;5077722;27;95300;-73
2021/12/18 06:36:21;;;;;;;31.38;3.00;;;;;;;;;;5062471;27;97271;-74
2021/12/18 06:38:48;;;;;;;26.02;2.70;;;;;;;;;;5056364;27;95144;-73
2021/12/18 06:41:14;;;;;;;16.60;1.88;;;;;;;;;;5075428;27;96833;-74
2021/12/18 06:43:40;;;;;;;11.07;1.90;;;;;;;;;;5081477;27;97261;-73
2021/12/18 06:46:06;;;;;;;6.28;1.85;;;;;;;;;;5073241;27;95189;-73
2021/12/18 06:48:33;;;;;;;12.52;2.20;;;;;;;;;;5071042;27;96446;-74
2021/12/18 06:51:00;;;;;;;7.60;2.45;;;;;;;;;;5086979;27;97522;-74
2021/12/18 06:53:26;;;;;;;15.07;3.08;;;;;;;;;;5091751;27;95229;-73
2021/12/18 06:55:52;;;;;;;36.00;3.60;;;;;;;;;;5083691;27;97126;-73
2021/12/18 06:58:20;;;;;;;18.40;3.22;;;;;;;;;;5088325;27;96227;-73
2021/12/18 07:00:46;;;;;;;17.60;3.65;;;;;;;;;;5068353;27;96402;-73
2021/12/18 07:03:13;;;;;;;13.70;3.42;;;;;;;;;;5076906;27;97282;-74
2021/12/18 07:05:39;;;;;;;10.38;3.42;;;;;;;;;;5055863;27;96361;-73
2021/12/18 07:08:06;;;;;;;14.82;3.08;;;;;;;;;;5062786;27;96864;-73
2021/12/18 07:10:32;;;;;;;18.40;4.13;;;;;;;;;;5073822;27;97348;-73
2021/12/18 07:12:58;;;;;;;17.77;3.83;;;;;;;;;;5067668;27;95242;-72
2021/12/18 07:15:25;;;;;;;19.05;4.20;;;;;;;;;;5092877;27;96722;-73
2021/12/18 07:17:51;;;;;;;16.50;4.13;;;;;;;;;;5094906;27;95282;-73
2021/12/18 07:20:17;;;;;;;17.83;4.00;;;;;;;;;;5057673;27;96881;-72
2021/12/18 07:22:44;;;;;;;21.58;4.00;;;;;;;;;;5052957;27;97642;-74
2021/12/18 07:25:10;;;;;;;9.02;2.97;;;;;;;;;;5070972;27;96513;-73
2021/12/18 07:27:37;;;;;;;29.98;3.17;;;;;;;;;;5072984;27;96846;-72
2021/12/18 07:30:03;;;;;;;23.45;4.18;;;;;;;;;;5064175;27;97357;-72
2021/12/18 07:32:30;;;;;;;22.15;3.78;;;;;;;;;;5068737;27;95402;-72
2021/12/18 07:34:57;;;;;;;20.27;3.58;;;;;;;;;;5088202;27;97003;-73
2021/12/18 15:36:46;;;;;;;15.48;9.23;;;;;;;;;;5010416;28;95423;-74
2021/12/18 15:39:13;;;;;;;18.83;12.50;;;;;;;;;;5005885;28;96402;-74
2021/12/18 15:41:40;;;;;;;17.85;11.63;;;;;;;;;;5006739;28;95147;-74
2021/12/18 15:44:07;;;;;;;16.50;8.75;;;;;;;;;;5003219;28;96873;-74
2021/12/18 15:46:33;;;;;;;13.55;6.10;;;;;;;;;;5003359;28;97291;-74
2021/12/18 15:49:00;;;;;;;11.75;5.70;;;;;;;;;;5008278;28;97301;-74
2021/12/18 15:51:27;;;;;;;14.93;9.00;;;;;;;;;;5007798;28;96695;-74
2021/12/18 15:53:53;;;;;;;14.50;7.95;;;;;;;;;;5006560;28;97052;-74
2021/12/18 15:56:20;;;;;;;14.38;8.82;;;;;;;;;;5009647;28;95398;-75
2021/12/18 15:58:47;;;;;;;16.80;7.13;;;;;;;;;;5034734;27;96574;-74
2021/12/18 16:01:15;;;;;;;17.77;7.03;;;;;;;;;;5007043;28;95401;-74
2021/12/18 16:03:41;;;;;;;14.18;7.57;;;;;;;;;;5004662;28;96883;-75
2021/12/18 16:06:13;;;;;;;13.32;6.93;;;;;;;;;;5006784;28;97367;-74
2021/12/18 16:08:40;;;;;;;13.70;6.70;;;;;;;;;;5006495;28;96780;-74
2021/12/18 16:11:06;;;;;;;13.05;6.80;;;;;;;;;;5007938;28;96981;-74
2021/12/18 16:13:33;;;;;;;22.20;10.57;;;;;;;;;;5005687;28;97295;-73
2021/12/18 16:16:00;;;;;;;28.95;18.23;;;;;;;;;;5006239;28;95292;-74
2021/12/18 16:18:27;;;;;;;19.13;9.68;;;;;;;;;;5007623;28;96804;-73
2021/12/18 16:20:53;;;;;;;12.88;7.97;;;;;;;;;;5007190;28;96091;-73
2021/12/18 16:23:20;;;;;;;15.13;7.78;;;;;;;;;;5006710;28;96753;-73
2021/12/18 16:25:49;;;;;;;17.48;9.13;;;;;;;;;;4998555;28;97101;-73
2021/12/18 16:28:16;;;;;;;25.75;10.43;;;;;;;;;;5006051;28;95329;-75
2021/12/18 16:30:43;;;;;;;20.33;8.90;;;;;;;;;;5000840;28;97117;-73
2021/12/18 16:33:09;;;;;;;15.73;8.15;;;;;;;;;;5006485;28;98942;-73
2021/12/18 16:35:37;;;;;;;15.95;7.05;;;;;;;;;;5005870;28;95246;-74
2021/12/18 16:38:09;;;;;;;19.23;8.23;;;;;;;;;;5006572;28;95762;-73
2021/12/18 16:40:37;;;;;;;23.60;9.57;;;;;;;;;;5008809;28;96163;-73
2021/12/18 16:43:04;;;;;;;18.15;9.10;;;;;;;;;;5007353;28;96809;-72
2021/12/18 16:45:33;;;;;;;18.52;8.45;;;;;;;;;;5005001;28;97491;-73
2021/12/18 16:47:59;;;;;;;20.75;7.57;;;;;;;;;;4984786;28;95512;-73
2021/12/18 16:50:25;;;;;;;20.80;8.73;;;;;;;;;;4991203;28;96696;-73
2021/12/18 16:52:53;;;;;;;50.42;17.02;;;;;;;;;;4992683;28;97658;-73
2021/12/18 16:55:20;;;;;;;30.42;13.77;;;;;;;;;;4991722;28;95570;-73
2021/12/18 16:57:47;;;;;;;26.33;12.10;;;;;;;;;;4990081;28;96801;-73
2021/12/18 17:00:14;;;;;;;25.50;11.75;;;;;;;;;;4999641;28;97393;-73
2021/12/18 17:02:40;;;;;;;23.17;10.43;;;;;;;;;;4997490;28;96418;-73
2021/12/18 17:05:07;;;;;;;27.23;11.82;;;;;;;;;;4987447;28;96231;-73
2021/12/18 17:07:33;;;;;;;23.48;11.18;;;;;;;;;;4999758;28;95451;-73
2021/12/18 17:10:21;;;;;;;24.50;10.98;;;;;;;;;;4985768;28;98534;-73
2021/12/18 17:12:47;;;;;;;38.28;20.17;;;;;;;;;;5001008;28;97185;-73
2021/12/18 17:15:13;;;;;;;28.38;11.23;;;;;;;;;;4993974;28;97244;-73
2021/12/18 17:17:40;;;;;;;29.77;12.63;;;;;;;;;;4993903;28;96687;-73
2021/12/18 17:20:08;;;;;;;28.60;11.98;;;;;;;;;;4991550;28;97665;-75
2021/12/18 17:22:35;;;;;;;33.50;14.43;;;;;;;;;;4998315;28;95455;-75
2021/12/18 17:25:03;;;;;;;39.63;16.45;;;;;;;;;;4998312;28;97042;-74
2021/12/18 17:27:29;;;;;;;28.38;12.55;;;;;;;;;;4983113;28;96058;-74
2021/12/18 17:29:55;;;;;;;28.33;11.10;;;;;;;;;;4993881;28;96828;-74
2021/12/18 17:32:24;;;;;;;24.35;11.63;;;;;;;;;;4991415;28;96875;-74
2021/12/18 17:34:50;;;;;;;32.63;12.48;;;;;;;;;;4984053;28;95048;-74
2021/12/18 17:37:16;;;;;;;38.88;16.52;;;;;;;;;;5001055;28;96737;-74
2021/12/18 17:39:44;;;;;;;115.13;49.35;;;;;;;;;;4992252;28;96983;-74
2021/12/18 17:42:11;;;;;;;26.88;10.93;;;;;;;;;;4991184;28;95226;-73
2021/12/18 17:44:38;;;;;;;25.92;11.55;;;;;;;;;;4999442;28;96996;-74
2021/12/18 17:47:04;;;;;;;28.55;13.13;;;;;;;;;;4996219;28;95403;-74
2021/12/18 17:49:31;;;;;;;39.75;18.60;;;;;;;;;;4987818;28;96893;-74
2021/12/18 17:51:57;;;;;;;43.80;19.92;;;;;;;;;;4997994;28;97377;-74
2021/12/18 17:54:23;;;;;;;43.00;19.88;;;;;;;;;;4997139;28;95231;-74
2021/12/18 17:56:50;;;;;;;28.98;13.15;;;;;;;;;;5000648;28;96770;-74
2021/12/18 17:59:16;;;;;;;27.75;12.77;;;;;;;;;;4991211;28;97138;-73
2021/12/18 18:01:42;;;;;;;30.95;12.90;;;;;;;;;;4991145;28;96072;-73
2021/12/18 18:04:09;;;;;;;25.25;13.25;;;;;;;;;;5000853;28;96027;-74
2021/12/18 18:06:35;;;;;;;28.85;13.85;;;;;;;;;;4997904;28;96128;-73
2021/12/18 18:09:02;;;;;;;22.85;9.35;;;;;;;;;;4998011;28;96976;-73
2021/12/18 18:11:29;;;;;;;15.18;7.93;;;;;;;;;;5004604;28;97443;-73
2021/12/18 18:13:57;;;;;;;7.63;3.95;;;;;;;;;;5002433;28;95481;-73
2021/12/18 18:16:24;;;;;;;10.15;3.97;;;;;;;;;;4988980;28;96928;-74
2021/12/18 18:18:51;;;;;;;7.32;3.85;;;;;;;;;;4991169;28;96963;-73
2021/12/18 18:21:18;;;;;;;11.57;5.20;;;;;;;;;;5004571;28;96421;-73
2021/12/18 18:23:44;;;;;;;10.50;5.00;;;;;;;;;;4999726;28;95880;-73
2021/12/18 18:26:11;;;;;;;9.93;4.57;;;;;;;;;;4992271;28;97184;-74
2021/12/18 18:28:39;;;;;;;7.40;4.03;;;;;;;;;;5010290;28;96684;-73
2021/12/18 18:31:07;;;;;;;6.00;2.60;;;;;;;;;;5005271;28;97417;-74
2021/12/18 18:33:34;;;;;;;7.80;3.15;;;;;;;;;;4992892;28;97054;-73
2021/12/18 18:36:00;;;;;;;20.33;11.95;;;;;;;;;;4992512;28;96806;-73
2021/12/18 18:38:26;;;;;;;10.07;4.65;;;;;;;;;;5005855;28;97096;-73
2021/12/18 18:40:53;;;;;;;10.85;6.25;;;;;;;;;;4999369;28;95412;-74
2021/12/18 18:43:25;;;;;;;13.65;7.40;;;;;;;;;;4996683;28;96766;-74
2021/12/18 18:46:08;;;;;;;11.97;6.10;;;;;;;;;;4980934;28;96381;-75
2021/12/18 18:48:36;;;;;;;9.30;3.40;;;;;;;;;;4992200;28;96788;-74
2021/12/18 18:51:03;;;;;;;9.90;4.20;;;;;;;;;;5005154;28;96796;-74
2021/12/18 18:53:29;;;;;;;8.75;4.10;;;;;;;;;;4999055;28;95318;-74
2021/12/18 18:55:55;;;;;;;7.82;3.60;;;;;;;;;;4991483;28;96718;-74
2021/12/18 18:58:22;;;;;;;9.32;3.80;;;;;;;;;;4996683;28;97162;-75
2021/12/18 19:00:49;;;;;;;9.10;3.67;;;;;;;;;;5003738;28;95301;-74
2021/12/18 19:03:16;;;;;;;11.15;3.83;;;;;;;;;;4990055;28;96718;-74
2021/12/18 19:05:42;;;;;;;10.95;4.78;;;;;;;;;;4993637;28;97346;-74
2021/12/18 19:08:09;;;;;;;12.05;5.10;;;;;;;;;;4994724;28;95697;-74
2021/12/18 19:10:35;;;;;;;12.88;5.40;;;;;;;;;;5003365;28;96271;-74
2021/12/18 19:13:01;;;;;;;11.85;5.70;;;;;;;;;;4990498;28;97310;-74
2021/12/18 19:15:27;;;;;;;15.80;6.18;;;;;;;;;;4995100;28;96745;-78
2021/12/18 19:17:55;;;;;;;12.70;6.43;;;;;;;;;;4994364;28;97655;-74
2021/12/18 19:20:28;;;;;;;49.13;16.60;;;;;;;;;;5006032;28;95773;-74
2021/12/18 19:22:58;;;;;;;62.08;19.60;;;;;;;;;;4990229;28;96849;-74
2021/12/18 19:25:25;;;;;;;22.27;11.57;;;;;;;;;;4989501;28;97331;-74
2021/12/18 19:27:51;;;;;;;21.02;8.32;;;;;;;;;;4990314;28;96252;-74
2021/12/18 19:30:19;;;;;;;27.40;13.07;;;;;;;;;;4989942;28;97098;-74
2021/12/18 19:32:45;;;;;;;31.27;14.63;;;;;;;;;;4985553;28;97273;-72
2021/12/18 19:35:12;;;;;;;29.73;13.70;;;;;;;;;;4993194;28;95223;-74
2021/12/18 19:37:40;;;;;;;24.00;11.00;;;;;;;;;;4990438;28;97310;-74
2021/12/18 19:40:08;;;;;;;45.10;17.10;;;;;;;;;;4990113;28;95491;-75
2021/12/18 19:42:34;;;;;;;25.45;13.48;;;;;;;;;;4988420;28;96502;-74
2021/12/18 19:45:03;;;;;;;34.58;14.27;;;;;;;;;;4990909;28;97099;-74
2021/12/18 19:47:29;;;;;;;25.50;11.38;;;;;;;;;;4989362;28;95843;-74
2021/12/18 19:49:58;;;;;;;32.45;12.30;;;;;;;;;;4992456;28;96900;-75
2021/12/18 19:52:24;;;;;;;32.10;10.95;;;;;;;;;;4989838;28;97458;-74
2021/12/18 19:54:51;;;;;;;37.90;14.05;;;;;;;;;;4990453;28;95299;-74
2021/12/18 19:57:20;;;;;;;33.25;12.82;;;;;;;;;;4988345;28;97271;-75
2021/12/18 19:59:47;;;;;;;25.50;9.85;;;;;;;;;;4991025;28;95178;-74
2021/12/18 20:02:27;;;;;;;26.52;11.00;;;;;;;;;;4988332;28;96739;-74
2021/12/18 20:04:54;;;;;;;27.25;10.15;;;;;;;;;;4989863;28;97909;-74
2021/12/18 20:07:20;;;;;;;25.63;9.85;;;;;;;;;;4992547;28;95205;-74
2021/12/18 20:09:47;;;;;;;27.45;9.10;;;;;;;;;;4992302;28;96733;-74
2021/12/18 20:12:15;;;;;;;23.55;9.60;;;;;;;;;;4992107;28;97311;-74
2021/12/18 20:14:42;;;;;;;27.65;9.52;;;;;;;;;;4990069;28;95580;-74
2021/12/18 20:17:08;;;;;;;30.20;10.60;;;;;;;;;;4993800;28;96784;-74
2021/12/18 20:19:35;;;;;;;28.92;11.90;;;;;;;;;;4989671;28;95478;-74
2021/12/18 20:22:02;;;;;;;32.42;13.80;;;;;;;;;;4992392;28;96811;-74
2021/12/18 20:24:28;;;;;;;33.08;13.20;;;;;;;;;;4994141;28;97336;-74
2021/12/18 20:26:57;;;;;;;30.77;12.45;;;;;;;;;;4975626;28;95347;-74
2021/12/18 20:29:25;;;;;;;28.77;12.68;;;;;;;;;;4992861;28;96729;-74
2021/12/18 20:31:52;;;;;;;30.70;12.30;;;;;;;;;;4994409;28;97322;-74
2021/12/18 20:34:19;;;;;;;35.30;12.95;;;;;;;;;;4994188;28;95749;-74
2021/12/18 20:36:46;;;;;;;29.55;11.23;;;;;;;;;;4995102;28;96952;-74
2021/12/18 20:39:12;;;;;;;35.08;12.32;;;;;;;;;;4996599;28;97333;-75
2021/12/18 20:41:40;;;;;;;29.20;11.70;;;;;;;;;;4994097;28;96674;-74
2021/12/18 20:44:10;;;;;;;33.45;12.30;;;;;;;;;;4994464;28;97347;-74
2021/12/18 20:46:37;;;;;;;34.53;13.32;;;;;;;;;;4994566;28;95268;-74
2021/12/18 20:49:05;;;;;;;37.92;15.82;;;;;;;;;;4994493;28;96808;-74
2021/12/18 20:51:33;;;;;;;43.13;15.75;;;;;;;;;;4993419;28;97396;-74
2021/12/18 20:54:00;;;;;;;37.33;13.27;;;;;;;;;;4993762;28;95253;-74
2021/12/18 20:56:26;;;;;;;35.30;12.70;;;;;;;;;;4994101;28;96874;-74
2021/12/18 20:58:53;;;;;;;36.03;13.35;;;;;;;;;;4994539;28;97418;-74
2021/12/18 21:01:23;;;;;;;35.92;13.68;;;;;;;;;;4995979;28;96536;-75
2021/12/18 21:03:52;;;;;;;39.42;15.75;;;;;;;;;;4994407;28;97312;-74
2021/12/18 21:06:19;;;;;;;42.45;15.65;;;;;;;;;;4994214;28;95315;-74
2021/12/18 21:08:48;;;;;;;51.25;14.98;;;;;;;;;;4993873;28;96711;-74
2021/12/18 21:11:17;;;;;;;41.30;14.55;;;;;;;;;;4993601;28;97359;-74
2021/12/18 21:13:44;;;;;;;40.75;14.60;;;;;;;;;;4993879;28;95209;-72
2021/12/18 21:16:11;;;;;;;41.33;14.75;;;;;;;;;;4993787;28;96642;-74
2021/12/18 21:18:38;;;;;;;43.55;15.60;;;;;;;;;;4994365;28;96828;-74
2021/12/18 21:21:07;;;;;;;48.63;15.38;;;;;;;;;;4993936;28;95360;-74
2021/12/18 21:23:34;;;;;;;48.33;16.95;;;;;;;;;;4996767;28;96876;-74
2021/12/18 21:26:01;;;;;;;44.22;15.00;;;;;;;;;;4994518;28;95162;-74
2021/12/18 21:28:28;;;;;;;45.08;14.77;;;;;;;;;;4992998;28;96779;-74
2021/12/18 21:30:54;;;;;;;40.22;14.27;;;;;;;;;;4993124;28;97118;-74
2021/12/18 21:33:23;;;;;;;42.15;13.65;;;;;;;;;;4993531;28;96171;-73
2021/12/18 21:38:36;;;;;;;43.72;14.35;;;;;;;;;;4992516;28;97541;-74
2021/12/18 21:41:04;;;;;;;40.20;13.57;;;;;;;;;;4993763;28;95427;-74
2021/12/18 21:43:31;;;;;;;31.08;10.70;;;;;;;;;;4993131;28;96844;-75
2021/12/18 21:45:58;;;;;;;31.67;11.18;;;;;;;;;;4996709;28;97419;-73
2021/12/18 21:48:24;;;;;;;26.40;9.82;;;;;;;;;;4993634;28;97150;-75
2021/12/18 21:50:51;;;;;;;27.27;10.43;;;;;;;;;;4993009;28;97549;-74
2021/12/18 21:53:18;;;;;;;21.90;9.18;;;;;;;;;;4992951;28;95338;-74
2021/12/18 21:55:46;;;;;;;23.30;8.98;;;;;;;;;;4993466;28;96806;-75
2021/12/18 21:58:12;;;;;;;18.88;8.90;;;;;;;;;;4992878;28;96212;-74
2021/12/18 22:00:39;;;;;;;20.25;8.20;;;;;;;;;;4993929;28;95380;-74
2021/12/18 22:03:05;;;;;;;20.33;8.00;;;;;;;;;;4993207;28;96797;-74
2021/12/18 22:05:32;;;;;;;19.27;8.23;;;;;;;;;;4996313;28;97380;-74
2021/12/18 22:08:00;;;;;;;21.45;7.78;;;;;;;;;;4993314;28;97088;-74
2021/12/18 22:10:27;;;;;;;19.35;8.55;;;;;;;;;;4992212;28;97291;-74
2021/12/18 22:12:54;;;;;;;21.05;8.98;;;;;;;;;;4993178;28;95278;-74
2021/12/18 22:15:20;;;;;;;20.00;10.05;;;;;;;;;;4992980;28;96965;-74
2021/12/18 22:17:46;;;;;;;17.67;10.25;;;;;;;;;;4993187;28;97289;-74
2021/12/18 22:20:13;;;;;;;15.43;7.95;;;;;;;;;;4992166;28;95291;-74
2021/12/18 22:22:39;;;;;;;16.88;8.52;;;;;;;;;;4991953;28;95797;-74
2021/12/18 22:25:06;;;;;;;14.18;8.02;;;;;;;;;;4992375;28;97812;-74
2021/12/18 22:27:32;;;;;;;18.38;8.45;;;;;;;;;;4995564;28;96345;-74
2021/12/18 22:29:58;;;;;;;18.83;8.75;;;;;;;;;;4991391;28;96217;-74
2021/12/18 22:32:25;;;;;;;20.00;9.00;;;;;;;;;;4990964;28;95409;-74
2021/12/18 22:34:51;;;;;;;18.77;8.52;;;;;;;;;;4991469;28;96973;-74
2021/12/18 22:37:17;;;;;;;18.85;9.60;;;;;;;;;;4990447;28;96337;-72
2021/12/18 22:39:50;;;;;;;25.35;11.23;;;;;;;;;;4990047;28;95563;-74
2021/12/18 22:42:17;;;;;;;27.45;12.05;;;;;;;;;;4988664;28;95630;-74
2021/12/18 22:44:43;;;;;;;28.02;11.35;;;;;;;;;;4989959;28;97216;-74
2021/12/18 22:47:10;;;;;;;22.48;10.18;;;;;;;;;;4990587;28;96404;-74
2021/12/18 22:49:36;;;;;;;23.70;10.10;;;;;;;;;;4993799;28;96825;-74
2021/12/18 22:52:03;;;;;;;21.77;9.23;;;;;;;;;;4990216;28;95549;-74
2021/12/18 22:54:30;;;;;;;27.35;10.55;;;;;;;;;;4990361;28;96746;-74
2021/12/18 22:56:56;;;;;;;26.38;10.52;;;;;;;;;;4990273;28;97378;-74
2021/12/18 22:59:23;;;;;;;33.00;12.68;;;;;;;;;;4990246;28;95335;-74
2021/12/18 23:01:49;;;;;;;42.30;14.05;;;;;;;;;;4989784;28;96813;-74
2021/12/18 23:04:16;;;;;;;50.35;15.10;;;;;;;;;;4989862;28;97304;-74
2021/12/18 23:06:43;;;;;;;54.88;16.33;;;;;;;;;;4990279;28;95369;-74
2021/12/18 23:09:11;;;;;;;51.20;14.35;;;;;;;;;;4989490;28;95467;-74
2021/12/18 23:11:44;;;;;;;50.25;14.15;;;;;;;;;;4993157;28;97665;-74
2021/12/18 23:21:51;;;;;;;58.42;14.45;;;;;;;;;;4970303;28;96796;-74
2021/12/18 23:24:17;;;;;;;73.93;15.25;;;;;;;;;;4986043;28;97363;-74